Time,TemperatureF,DewpointF,PressureIn,WindDirection,WindDirectionDegrees,WindSpeedMPH,WindSpeedGustMPH,Humidity,HourlyPrecipIn,Conditions,Clouds,dailyrainin,SoftwareType,DateUTC
2013-12-11 00:22:00,26.0,22.0,29.79,ENE,63,0.0,0.0,83,0.00,,,0.00,,2013-12-11 09:22:00,
2013-12-11 00:43:00,25.0,21.0,29.79,NE,56,0.0,0.0,83,0.00,,,0.00,,2013-12-11 09:43:00,
2013-12-11 00:53:00,25.0,21.0,29.78,ENE,67,0.0,0.0,83,0.00,,,0.00,,2013-12-11 09:53:00,
2013-12-11 01:22:00,24.0,20.0,29.78,ENE,71,0.0,0.0,86,0.00,,,0.00,,2013-12-11 10:22:00,
2013-12-11 01:52:00,22.0,19.0,29.76,ENE,71,0.0,0.0,88,0.00,,,0.00,,2013-12-11 10:52:00,
2013-12-11 02:22:00,22.0,19.0,29.75,East,80,0.0,0.0,89,0.00,,,0.00,,2013-12-11 11:22:00,
2013-12-11 02:42:00,23.0,20.0,29.74,NE,54,0.0,0.0,87,0.00,,,0.00,,2013-12-11 11:42:00,
2013-12-11 02:52:00,24.0,20.0,29.74,NE,36,0.0,0.0,86,0.00,,,0.00,,2013-12-11 11:52:00,
2013-12-11 03:21:00,26.0,21.0,29.72,NE,56,0.0,0.0,82,0.00,,,0.00,,2013-12-11 12:21:00,
2013-12-11 03:52:00,26.0,21.0,29.71,NE,44,0.0,0.0,80,0.00,,,0.00,,2013-12-11 12:52:00,
2013-12-11 04:12:00,26.0,20.0,29.70,NE,43,0.0,0.0,79,0.00,,,0.00,,2013-12-11 13:12:00,
2013-12-11 04:22:00,26.0,20.0,29.70,NE,37,0.0,0.0,78,0.00,,,0.00,,2013-12-11 13:22:00,
2013-12-11 04:42:00,27.0,20.0,29.68,NE,55,0.0,0.0,76,0.00,,,0.00,,2013-12-11 13:42:00,
2013-12-11 04:52:00,27.0,20.0,29.68,NE,43,0.0,0.0,76,0.00,,,0.00,,2013-12-11 13:52:00,
2013-12-11 05:21:00,26.0,19.0,29.67,ENE,57,0.0,0.0,76,0.00,,,0.00,,2013-12-11 14:21:00,
2013-12-11 05:42:00,26.0,19.0,29.66,NE,56,0.0,0.0,75,0.00,,,0.00,,2013-12-11 14:42:00,
2013-12-11 05:52:00,26.0,19.0,29.66,NE,43,0.0,0.0,73,0.00,,,0.00,,2013-12-11 14:52:00,
2013-12-11 06:11:00,26.0,18.0,29.65,NE,40,0.0,0.0,72,0.00,,,0.00,,2013-12-11 15:11:00,
2013-12-11 06:21:00,27.0,19.0,29.65,NE,49,0.0,0.0,71,0.00,,,0.00,,2013-12-11 15:21:00,
2013-12-11 06:43:00,26.0,17.0,29.65,NE,40,0.0,0.0,69,0.00,,,0.00,,2013-12-11 15:43:00,
2013-12-11 06:53:00,26.0,17.0,29.64,NE,43,0.0,0.0,69,0.00,,,0.00,,2013-12-11 15:53:00,
2013-12-11 07:23:00,27.0,17.0,29.64,ENE,58,0.0,0.0,66,0.00,,,0.00,,2013-12-11 16:23:00,
2013-12-11 07:43:00,26.0,16.0,29.63,NE,45,6.0,17.0,65,0.00,,,0.00,,2013-12-11 16:43:00,
2013-12-11 07:52:00,26.0,16.0,29.63,NE,49,6.0,23.0,64,0.00,,,0.00,,2013-12-11 16:52:00,
2013-12-11 08:22:00,26.0,15.0,29.62,NE,44,7.0,23.0,62,0.00,,,0.00,,2013-12-11 17:22:00,
2013-12-11 08:52:00,27.0,15.0,29.61,NE,40,5.0,20.0,61,0.00,,,0.00,,2013-12-11 17:52:00,
2013-12-11 09:12:00,26.0,15.0,29.61,NE,38,5.0,15.0,62,0.00,,,0.00,,2013-12-11 18:12:00,
2013-12-11 09:21:00,26.0,15.0,29.61,NE,43,4.0,13.0,63,0.00,,,0.00,,2013-12-11 18:21:00,
2013-12-11 09:43:00,26.0,15.0,29.60,NE,49,7.0,18.0,63,0.00,,,0.00,,2013-12-11 18:43:00,
2013-12-11 09:52:00,26.0,15.0,29.60,ENE,66,5.0,12.0,63,0.00,,,0.00,,2013-12-11 18:52:00,
2013-12-11 10:21:00,25.0,15.0,29.59,NE,39,1.0,7.0,64,0.00,,,0.00,,2013-12-11 19:21:00,
2013-12-11 10:42:00,25.0,15.0,29.59,ENE,77,1.0,6.0,64,0.00,,,0.00,,2013-12-11 19:42:00,
2013-12-11 10:52:00,25.0,15.0,29.59,ENE,75,2.0,7.0,65,0.00,,,0.00,,2013-12-11 19:52:00,
2013-12-11 11:22:00,24.0,15.0,29.58,ENE,74,0.0,3.0,67,0.00,,,0.00,,2013-12-11 20:22:00,
2013-12-11 11:42:00,23.0,14.0,29.57,ENE,61,0.0,8.0,67,0.00,,,0.00,,2013-12-11 20:42:00,
2013-12-11 11:52:00,24.0,14.0,29.57,ENE,58,3.0,10.0,64,0.00,,,0.00,,2013-12-11 20:52:00,
2013-12-11 12:11:00,26.0,14.0,29.57,NNE,24,1.0,12.0,60,0.00,,,0.00,,2013-12-11 21:11:00,
2013-12-11 12:22:00,26.0,14.0,29.57,NE,40,3.0,13.0,59,0.00,,,0.00,,2013-12-11 21:22:00,
2013-12-11 12:43:00,27.0,14.0,29.56,NE,43,5.0,14.0,57,0.00,,,0.00,,2013-12-11 21:43:00,
2013-12-11 12:53:00,27.0,14.0,29.55,NE,43,5.0,15.0,57,0.00,,,0.00,,2013-12-11 21:53:00,
2013-12-11 13:23:00,27.0,13.0,29.54,NE,45,5.0,15.0,54,0.00,,,0.00,,2013-12-11 22:23:00,
2013-12-11 13:53:00,27.0,13.0,29.54,ENE,57,1.0,12.0,55,0.00,,,0.00,,2013-12-11 22:53:00,
2013-12-11 14:22:00,27.0,12.0,29.53,ENE,68,3.0,13.0,53,0.00,,,0.00,,2013-12-11 23:22:00,
2013-12-11 14:52:00,27.0,12.0,29.52,ENE,59,1.0,17.0,53,0.00,,,0.00,,2013-12-11 23:52:00,
2013-12-11 15:11:00,26.0,12.0,29.52,NE,50,3.0,12.0,54,0.00,,,0.00,,2013-12-12 00:11:00,
2013-12-11 15:21:00,26.0,11.0,29.52,NE,55,5.0,14.0,53,0.00,,,0.00,,2013-12-12 00:21:00,
2013-12-11 15:42:00,26.0,11.0,29.52,ENE,66,3.0,12.0,53,0.00,,,0.00,,2013-12-12 00:42:00,
2013-12-11 15:52:00,26.0,11.0,29.51,NE,51,3.0,12.0,53,0.00,,,0.00,,2013-12-12 00:52:00,
2013-12-11 16:11:00,25.0,11.0,29.51,East,80,2.0,12.0,54,0.00,,,0.00,,2013-12-12 01:11:00,
2013-12-11 16:22:00,25.0,11.0,29.50,NE,44,3.0,9.0,54,0.00,,,0.00,,2013-12-12 01:22:00,
2013-12-11 16:42:00,25.0,11.0,29.50,East,80,1.0,9.0,55,0.00,,,0.00,,2013-12-12 01:42:00,
2013-12-11 16:52:00,24.0,11.0,29.49,ENE,63,1.0,8.0,56,0.00,,,0.00,,2013-12-12 01:52:00,
2013-12-11 17:11:00,24.0,11.0,29.49,NE,52,1.0,7.0,56,0.00,,,0.00,,2013-12-12 02:11:00,
2013-12-11 17:21:00,23.0,10.0,29.48,ENE,78,1.0,6.0,57,0.00,,,0.00,,2013-12-12 02:21:00,
2013-12-11 18:11:00,23.0,10.0,29.47,ENE,63,5.0,12.0,56,0.00,,,0.00,,2013-12-12 03:11:00,
2013-12-11 18:22:00,23.0,10.0,29.48,ENE,76,2.0,8.0,56,0.00,,,0.00,,2013-12-12 03:22:00,
2013-12-11 18:53:00,23.0,10.0,29.48,NE,54,1.0,8.0,56,0.00,,,0.00,,2013-12-12 03:53:00,
2013-12-11 19:13:00,23.0,10.0,29.48,ENE,68,3.0,12.0,56,0.00,,,0.00,,2013-12-12 04:13:00,
2013-12-11 19:52:00,23.0,9.0,29.48,ENE,63,2.0,12.0,55,0.00,,,0.00,,2013-12-12 04:52:00,
2013-12-11 21:52:00,21.0,7.0,29.46,NE,41,4.0,12.0,53,0.00,,,0.00,,2013-12-12 06:52:00,
2013-12-11 23:42:00,20.0,6.0,29.46,ENE,74,2.0,15.0,55,0.00,,,0.00,,2013-12-12 08:42:00,
2013-12-11 23:52:00,20.0,6.0,29.46,NE,49,3.0,12.0,55,0.00,,,0.00,,2013-12-12 08:52:00,